Time;durP1;ratioP1;P1;durP2;ratioP2;P2;SDS_P1;SDS_P2;PMS_P1;PMS_P2;Temp;Humidity;BMP_temperature;BMP_pressure;BME280_temperature;BME280_humidity;BME280_pressure;Samples;Min_cycle;Max_cycle;Signal;HPM_P1;HPM_P2
2022/02/22 00:02:17;;;;;;;;;;;6.10;99.90;;;;;;8387428;28;19935;-74
2022/02/22 00:06:19;;;;;;;;;;;6.20;99.90;;;;;;8404422;28;20388;-75
2022/02/22 00:10:22;;;;;;;;;;;6.20;99.90;;;;;;8417904;28;19924;-74
2022/02/22 00:14:24;;;;;;;;;;;6.20;99.90;;;;;;8414790;28;19977;-74
2022/02/22 00:18:27;;;;;;;;;;;6.20;99.90;;;;;;8410671;28;20291;-76
2022/02/22 00:22:29;;;;;;;;;;;6.10;99.90;;;;;;8411169;28;19924;-75
2022/02/22 00:26:30;;;;;;;;;;;6.00;99.90;;;;;;8409074;28;19932;-74
2022/02/22 00:30:33;;;;;;;;;;;6.00;99.90;;;;;;8411226;28;19924;-75
2022/02/22 00:34:35;;;;;;;;;;;5.90;99.90;;;;;;8416615;28;20034;-74
2022/02/22 00:38:36;;;;;;;;;;;5.80;99.90;;;;;;8397161;28;19975;-75
2022/02/22 00:42:38;;;;;;;;;;;5.80;99.90;;;;;;8394110;28;20359;-74
2022/02/22 00:46:40;;;;;;;;;;;5.70;99.90;;;;;;8414342;28;19924;-75
2022/02/22 00:50:41;;;;;;;;;;;5.70;99.90;;;;;;8415662;28;19932;-74
2022/02/22 00:54:43;;;;;;;;;;;5.70;99.90;;;;;;8407412;28;19924;-74
2022/02/22 00:58:45;;;;;;;;;;;5.70;99.90;;;;;;8398351;28;19932;-74
2022/02/22 01:02:47;;;;;;;;;;;5.60;99.90;;;;;;8405667;28;20433;-74
2022/02/22 01:06:48;;;;;;;;;;;5.60;99.90;;;;;;8392718;28;19985;-74
2022/02/22 01:10:50;;;;;;;;;;;5.60;99.90;;;;;;8416847;28;19923;-74
2022/02/22 01:14:52;;;;;;;;;;;5.60;99.90;;;;;;8420517;28;19931;-74
2022/02/22 01:18:53;;;;;;;;;;;5.60;99.90;;;;;;8401481;28;19925;-74
2022/02/22 01:22:56;;;;;;;;;;;5.50;99.90;;;;;;8404637;28;19925;-75
2022/02/22 01:26:58;;;;;;;;;;;5.40;99.90;;;;;;8391452;28;19990;-74
2022/02/22 01:31:00;;;;;;;;;;;5.40;99.90;;;;;;8408047;28;20313;-75
2022/02/22 01:35:02;;;;;;;;;;;5.40;99.90;;;;;;8387742;28;20264;-75
2022/02/22 01:39:04;;;;;;;;;;;5.30;99.90;;;;;;8412434;28;20267;-75
2022/02/22 01:43:06;;;;;;;;;;;5.30;99.90;;;;;;8384679;28;19931;-74
2022/02/22 01:47:08;;;;;;;;;;;5.20;99.90;;;;;;8391925;28;19939;-74
2022/02/22 01:51:10;;;;;;;;;;;5.20;99.90;;;;;;8407276;28;20274;-75
2022/02/22 01:55:11;;;;;;;;;;;5.20;99.90;;;;;;8403357;28;19924;-74
2022/02/22 01:59:13;;;;;;;;;;;5.10;99.90;;;;;;8404099;28;19928;-75
2022/02/22 02:03:16;;;;;;;;;;;5.10;99.90;;;;;;8416681;28;20043;-74
2022/02/22 02:07:17;;;;;;;;;;;5.10;99.90;;;;;;8412237;28;19928;-74
2022/02/22 02:11:19;;;;;;;;;;;5.00;99.90;;;;;;8390692;28;19925;-75
2022/02/22 02:15:21;;;;;;;;;;;5.00;99.90;;;;;;8415036;28;20356;-74
2022/02/22 02:19:22;;;;;;;;;;;5.00;99.90;;;;;;8407061;28;20284;-74
2022/02/22 02:23:24;;;;;;;;;;;4.90;99.90;;;;;;8404003;28;20403;-75
2022/02/22 02:27:26;;;;;;;;;;;4.90;99.90;;;;;;8409654;28;19935;-77
2022/02/22 02:31:27;;;;;;;;;;;4.80;99.90;;;;;;8410709;28;19928;-75
2022/02/22 02:35:31;;;;;;;;;;;4.80;99.90;;;;;;8406735;28;19932;-74
2022/02/22 02:39:32;;;;;;;;;;;4.80;99.90;;;;;;8409686;28;19932;-74
2022/02/22 02:43:34;;;;;;;;;;;4.70;99.90;;;;;;8398646;28;19927;-74
2022/02/22 02:47:36;;;;;;;;;;;4.70;99.90;;;;;;8394722;28;19976;-76
2022/02/22 02:51:38;;;;;;;;;;;4.70;99.90;;;;;;8406439;28;19927;-74
2022/02/22 02:55:40;;;;;;;;;;;4.70;99.90;;;;;;8405272;28;20261;-74
2022/02/22 02:59:41;;;;;;;;;;;4.70;99.90;;;;;;8392378;28;19971;-75
2022/02/22 03:03:43;;;;;;;;;;;4.60;99.90;;;;;;8408047;28;19924;-74
2022/02/22 03:07:45;;;;;;;;;;;4.70;99.90;;;;;;8410473;28;20375;-75
2022/02/22 03:11:47;;;;;;;;;;;4.70;99.90;;;;;;8392262;28;20414;-74
2022/02/22 03:15:48;;;;;;;;;;;4.60;99.90;;;;;;8385113;28;19924;-75
2022/02/22 03:19:50;;;;;;;;;;;4.60;99.90;;;;;;8412747;28;19924;-74
2022/02/22 03:23:52;;;;;;;;;;;4.60;99.90;;;;;;8403434;28;20277;-74
2022/02/22 03:27:54;;;;;;;;;;;4.60;99.90;;;;;;8414624;28;20367;-74
2022/02/22 03:31:55;;;;;;;;;;;4.70;99.90;;;;;;8394670;28;20269;-74
2022/02/22 03:35:58;;;;;;;;;;;4.70;99.90;;;;;;8413935;28;19928;-74
2022/02/22 03:40:00;;;;;;;;;;;4.70;99.90;;;;;;8409452;28;19932;-74
2022/02/22 03:44:02;;;;;;;;;;;4.70;99.90;;;;;;8386279;28;19924;-74
2022/02/22 03:48:03;;;;;;;;;;;4.70;99.90;;;;;;8402085;28;19967;-74
2022/02/22 03:52:05;;;;;;;;;;;4.60;99.90;;;;;;8404791;28;19932;-75
2022/02/22 03:56:07;;;;;;;;;;;4.60;99.90;;;;;;8404849;28;20424;-74
2022/02/22 04:00:11;;;;;;;;;;;4.60;99.90;;;;;;8405737;28;19925;-74
2022/02/22 04:04:13;;;;;;;;;;;4.60;99.90;;;;;;8413554;28;20389;-74
2022/02/22 04:08:15;;;;;;;;;;;4.60;99.90;;;;;;8406382;28;19949;-74
2022/02/22 04:12:19;;;;;;;;;;;4.60;99.90;;;;;;8405872;28;19924;-74
2022/02/22 04:16:21;;;;;;;;;;;4.50;99.90;;;;;;8408599;28;19932;-74
2022/02/22 04:20:22;;;;;;;;;;;4.50;99.90;;;;;;8396344;28;19924;-74
2022/02/22 04:24:24;;;;;;;;;;;4.40;99.90;;;;;;8407793;28;20000;-74
2022/02/22 04:28:26;;;;;;;;;;;4.40;99.90;;;;;;8388421;28;20300;-74
2022/02/22 04:32:27;;;;;;;;;;;4.30;99.90;;;;;;8413849;28;19928;-74
2022/02/22 04:36:29;;;;;;;;;;;4.30;99.90;;;;;;8403991;28;20310;-74
2022/02/22 04:40:30;;;;;;;;;;;4.20;99.90;;;;;;8409764;28;19925;-74
2022/02/22 04:44:32;;;;;;;;;;;4.20;99.90;;;;;;8399258;28;19931;-74
2022/02/22 04:48:34;;;;;;;;;;;4.10;99.90;;;;;;8402448;28;19975;-75
2022/02/22 04:52:36;;;;;;;;;;;4.10;99.90;;;;;;8389828;28;19931;-75
2022/02/22 04:56:37;;;;;;;;;;;4.10;99.90;;;;;;8392467;28;19935;-74
2022/02/22 05:00:39;;;;;;;;;;;4.00;99.90;;;;;;8408779;28;19928;-75
2022/02/22 05:04:41;;;;;;;;;;;4.00;99.90;;;;;;8419608;28;20413;-75
2022/02/22 05:08:42;;;;;;;;;;;4.00;99.90;;;;;;8406651;28;19924;-75
2022/02/22 05:12:44;;;;;;;;;;;3.90;99.90;;;;;;8418250;28;19931;-74
2022/02/22 05:16:46;;;;;;;;;;;3.90;99.90;;;;;;8418115;28;19928;-75
2022/02/22 05:20:57;;;;;;;;;;;3.90;99.90;;;;;;8399043;28;19929;-74
2022/02/22 05:24:58;;;;;;;;;;;3.90;99.90;;;;;;8391376;28;20449;-75
2022/02/22 05:29:00;;;;;;;;;;;3.80;99.90;;;;;;8391131;28;19928;-75
2022/02/22 05:33:02;;;;;;;;;;;3.80;99.90;;;;;;8418767;28;19924;-74
2022/02/22 05:37:03;;;;;;;;;;;3.80;99.90;;;;;;8406877;28;19925;-74
2022/02/22 05:45:46;;;;;;;;;;;3.60;99.90;;;;;;8402754;28;19929;-74
2022/02/22 05:49:47;;;;;;;;;;;3.50;99.90;;;;;;8401471;28;19924;-75
2022/02/22 05:53:51;;;;;;;;;;;3.50;99.90;;;;;;8392344;28;20296;-74
2022/02/22 05:57:53;;;;;;;;;;;3.40;99.90;;;;;;8386801;28;19924;-75
2022/02/22 06:01:54;;;;;;;;;;;3.40;99.90;;;;;;8393463;28;19924;-75
2022/02/22 06:05:56;;;;;;;;;;;3.30;99.90;;;;;;8412260;28;19924;-75
2022/02/22 06:09:58;;;;;;;;;;;3.30;99.90;;;;;;8410333;28;19932;-76
2022/02/22 06:13:59;;;;;;;;;;;3.30;99.90;;;;;;8414465;28;19924;-74
2022/02/22 06:18:01;;;;;;;;;;;3.30;99.90;;;;;;8413331;28;20041;-75
2022/02/22 06:22:04;;;;;;;;;;;3.30;99.90;;;;;;8388714;28;19925;-75
2022/02/22 06:26:06;;;;;;;;;;;3.30;99.90;;;;;;8388701;28;19955;-75
2022/02/22 06:30:08;;;;;;;;;;;3.30;99.90;;;;;;8411396;28;19931;-75
2022/02/22 06:34:10;;;;;;;;;;;3.30;99.90;;;;;;8415705;28;19929;-75
2022/02/22 06:38:11;;;;;;;;;;;3.30;99.90;;;;;;8412070;28;19944;-75
2022/02/22 06:42:13;;;;;;;;;;;3.40;99.90;;;;;;8402796;28;19928;-75
2022/02/22 06:46:15;;;;;;;;;;;3.50;99.90;;;;;;8406703;28;20367;-75
2022/02/22 06:50:16;;;;;;;;;;;3.60;99.90;;;;;;8407555;28;20387;-76
2022/02/22 06:54:18;;;;;;;;;;;3.70;99.90;;;;;;8409843;28;19928;-75
2022/02/22 06:58:20;;;;;;;;;;;3.80;99.90;;;;;;8413847;28;19924;-76
2022/02/22 07:02:21;;;;;;;;;;;3.80;99.90;;;;;;8395905;28;19924;-75
2022/02/22 07:06:23;;;;;;;;;;;3.90;99.90;;;;;;8393866;28;19935;-75
2022/02/22 07:10:25;;;;;;;;;;;4.00;99.90;;;;;;8406743;28;19931;-71
2022/02/22 07:14:27;;;;;;;;;;;4.00;99.90;;;;;;8409656;28;20291;-71
2022/02/22 07:18:29;;;;;;;;;;;4.10;99.90;;;;;;8410212;28;19935;-70
2022/02/22 07:22:30;;;;;;;;;;;4.10;99.90;;;;;;8387416;28;19924;-71
2022/02/22 07:26:32;;;;;;;;;;;4.30;99.90;;;;;;8408148;28;19924;-71
2022/02/22 07:30:34;;;;;;;;;;;4.40;99.90;;;;;;8412635;28;19924;-71
2022/02/22 07:34:36;;;;;;;;;;;4.40;99.90;;;;;;8387470;28;20339;-71
2022/02/22 07:38:38;;;;;;;;;;;4.60;99.90;;;;;;8397844;28;19924;-71
2022/02/22 07:42:40;;;;;;;;;;;4.70;99.90;;;;;;8409503;28;19924;-71
2022/02/22 07:46:41;;;;;;;;;;;4.80;99.90;;;;;;8403867;28;20360;-71
2022/02/22 07:50:43;;;;;;;;;;;4.90;99.90;;;;;;8402645;28;19925;-71
2022/02/22 07:54:45;;;;;;;;;;;5.00;99.90;;;;;;8401466;28;19925;-71
2022/02/22 07:58:47;;;;;;;;;;;5.10;99.90;;;;;;8387606;28;19929;-71
2022/02/22 08:02:48;;;;;;;;;;;5.20;99.90;;;;;;8397438;28;19928;-71
2022/02/22 08:06:50;;;;;;;;;;;5.30;99.90;;;;;;8398985;28;19925;-71
2022/02/22 08:10:52;;;;;;;;;;;5.40;99.90;;;;;;8405923;28;19925;-71
2022/02/22 08:14:54;;;;;;;;;;;5.40;99.90;;;;;;8390421;28;19924;-71
2022/02/22 08:18:56;;;;;;;;;;;5.50;99.90;;;;;;8397800;28;19981;-71
2022/02/22 08:22:59;;;;;;;;;;;5.60;99.90;;;;;;8402863;28;19977;-71
2022/02/22 08:27:03;;;;;;;;;;;5.70;99.90;;;;;;8390382;28;20364;-71
2022/02/22 08:31:05;;;;;;;;;;;5.80;99.90;;;;;;8407386;28;20311;-71
2022/02/22 08:35:07;;;;;;;;;;;5.80;99.90;;;;;;8418737;28;19931;-71
2022/02/22 08:39:09;;;;;;;;;;;5.90;99.90;;;;;;8402819;28;20401;-71
2022/02/22 08:43:10;;;;;;;;;;;6.00;99.90;;;;;;8412639;28;19924;-71
2022/02/22 08:47:12;;;;;;;;;;;6.00;99.90;;;;;;8410987;28;19938;-71
2022/02/22 08:51:14;;;;;;;;;;;6.10;99.90;;;;;;8410985;28;19932;-71
2022/02/22 08:55:16;;;;;;;;;;;6.20;99.90;;;;;;8406594;28;19924;-71
2022/02/22 08:59:18;;;;;;;;;;;6.20;99.90;;;;;;8403831;28;19924;-71
2022/02/22 09:03:19;;;;;;;;;;;6.30;99.90;;;;;;8388448;28;19924;-71
2022/02/22 09:07:21;;;;;;;;;;;6.40;99.90;;;;;;8406072;28;20756;-71
2022/02/22 09:11:23;;;;;;;;;;;6.40;99.90;;;;;;8408280;28;20261;-71
2022/02/22 09:15:27;;;;;;;;;;;6.50;99.90;;;;;;8415913;28;19924;-71
2022/02/22 09:19:29;;;;;;;;;;;6.60;99.90;;;;;;8390325;28;20336;-72
2022/02/22 09:23:31;;;;;;;;;;;6.70;99.90;;;;;;8409406;28;19924;-71
2022/02/22 09:27:32;;;;;;;;;;;6.80;99.90;;;;;;8403694;28;19932;-71
2022/02/22 09:31:34;;;;;;;;;;;6.90;99.90;;;;;;8405298;28;19932;-71
2022/02/22 09:35:36;;;;;;;;;;;6.90;99.90;;;;;;8391003;28;19924;-71
2022/02/22 09:39:38;;;;;;;;;;;6.90;99.90;;;;;;8404915;28;19939;-70
2022/02/22 09:43:40;;;;;;;;;;;6.80;99.90;;;;;;8392724;28;20379;-71
2022/02/22 09:47:43;;;;;;;;;;;6.90;99.90;;;;;;8382922;28;19924;-71
2022/02/22 09:51:47;;;;;;;;;;;6.90;99.90;;;;;;8395826;28;19983;-71
2022/02/22 09:55:49;;;;;;;;;;;6.90;99.90;;;;;;8405634;28;19974;-71
2022/02/22 09:59:51;;;;;;;;;;;7.00;99.90;;;;;;8408316;28;19924;-71
2022/02/22 10:03:59;;;;;;;;;;;7.00;99.90;;;;;;8414864;28;20410;-71
2022/02/22 10:08:02;;;;;;;;;;;7.00;99.90;;;;;;8388005;28;19932;-71
2022/02/22 10:12:04;;;;;;;;;;;7.00;99.90;;;;;;8391082;28;19932;-71
2022/02/22 10:16:13;;;;;;;;;;;7.00;99.90;;;;;;8383484;28;19942;-71
2022/02/22 10:20:15;;;;;;;;;;;7.10;99.90;;;;;;8409564;28;19940;-71
2022/02/22 10:24:18;;;;;;;;;;;7.20;99.90;;;;;;8406566;28;19963;-71
2022/02/22 10:28:20;;;;;;;;;;;7.30;99.90;;;;;;8389343;28;19932;-71
2022/02/22 10:32:40;;;;;;;;;;;7.30;99.90;;;;;;8405625;28;19986;-71
2022/02/22 10:36:42;;;;;;;;;;;7.40;99.90;;;;;;8397261;28;19951;-71
2022/02/22 10:40:50;;;;;;;;;;;7.40;99.90;;;;;;8394622;28;19925;-71
2022/02/22 10:44:52;;;;;;;;;;;7.50;99.90;;;;;;8403953;28;19971;-71
2022/02/22 10:49:02;;;;;;;;;;;7.60;99.90;;;;;;8387116;28;19930;-71
2022/02/22 10:53:10;;;;;;;;;;;7.60;99.90;;;;;;8422088;28;20401;-71
2022/02/22 10:57:12;;;;;;;;;;;7.60;99.90;;;;;;8375682;28;20328;-71
2022/02/22 11:01:15;;;;;;;;;;;7.60;99.90;;;;;;8389060;28;19954;-71
2022/02/22 11:05:17;;;;;;;;;;;7.40;99.90;;;;;;8415608;28;19935;-71
2022/02/22 11:09:19;;;;;;;;;;;7.30;99.90;;;;;;8408796;28;19924;-71
2022/02/22 11:13:28;;;;;;;;;;;7.20;99.90;;;;;;8389611;28;19928;-71
2022/02/22 11:17:30;;;;;;;;;;;7.20;99.90;;;;;;8386567;28;19950;-70
2022/02/22 11:21:32;;;;;;;;;;;7.10;99.90;;;;;;8406104;28;19930;-71
2022/02/22 11:25:34;;;;;;;;;;;7.10;99.90;;;;;;8381013;28;19986;-71
2022/02/22 11:29:36;;;;;;;;;;;7.10;99.90;;;;;;8375346;28;19985;-71
2022/02/22 11:33:58;;;;;;;;;;;7.20;99.90;;;;;;8387697;28;19932;-71
2022/02/22 11:38:03;;;;;;;;;;;7.20;99.90;;;;;;8399418;28;20004;-71
2022/02/22 11:42:15;;;;;;;;;;;7.30;99.90;;;;;;8385921;28;20422;-71
2022/02/22 11:46:16;;;;;;;;;;;7.30;99.90;;;;;;8389254;28;19924;-71
2022/02/22 11:50:18;;;;;;;;;;;7.40;99.90;;;;;;8410630;28;20276;-71
2022/02/22 11:54:24;;;;;;;;;;;7.50;99.90;;;;;;8400749;28;19928;-71
2022/02/22 11:58:30;;;;;;;;;;;7.60;99.90;;;;;;8382491;28;20384;-71
2022/02/22 12:02:34;;;;;;;;;;;7.70;99.90;;;;;;8386163;28;19936;-71
2022/02/22 12:06:43;;;;;;;;;;;7.80;99.90;;;;;;8401559;28;20307;-71
2022/02/22 12:10:45;;;;;;;;;;;7.90;99.90;;;;;;8406077;28;19928;-71
2022/02/22 12:14:55;;;;;;;;;;;8.00;99.90;;;;;;8410821;28;19932;-71
2022/02/22 12:19:00;;;;;;;;;;;8.10;99.90;;;;;;8412001;28;19935;-71
2022/02/22 12:23:02;;;;;;;;;;;8.20;99.90;;;;;;8402498;28;20315;-71
2022/02/22 12:27:10;;;;;;;;;;;8.30;99.90;;;;;;8393279;28;19990;-70
2022/02/22 12:31:22;;;;;;;;;;;8.40;99.90;;;;;;8386080;28;20360;-70
2022/02/22 12:35:37;;;;;;;;;;;8.40;99.90;;;;;;8404335;28;19924;-70
2022/02/22 12:39:40;;;;;;;;;;;8.50;99.90;;;;;;8387058;28;19986;-70
2022/02/22 12:43:50;;;;;;;;;;;8.60;99.90;;;;;;8389893;28;19924;-70
2022/02/22 12:47:52;;;;;;;;;;;8.70;99.90;;;;;;8387322;28;19932;-70
2022/02/22 12:51:58;;;;;;;;;;;8.70;99.90;;;;;;8400948;28;19956;-70
2022/02/22 12:56:00;;;;;;;;;;;8.80;99.90;;;;;;8409366;28;19924;-70
2022/02/22 13:00:04;;;;;;;;;;;8.90;99.90;;;;;;8391213;28;19931;-70
2022/02/22 13:04:07;;;;;;;;;;;9.00;99.90;;;;;;8392052;28;20295;-70
2022/02/22 13:08:09;;;;;;;;;;;9.00;99.90;;;;;;8408008;28;20391;-70
2022/02/22 13:12:11;;;;;;;;;;;9.00;99.90;;;;;;8404472;28;19931;-70
2022/02/22 13:16:14;;;;;;;;;;;9.00;99.90;;;;;;8392056;28;19925;-70
2022/02/22 13:20:16;;;;;;;;;;;9.10;99.90;;;;;;8406271;28;19925;-70
2022/02/22 13:24:17;;;;;;;;;;;9.10;99.90;;;;;;8415505;28;19943;-70
2022/02/22 13:28:28;;;;;;;;;;;9.20;99.90;;;;;;8407906;28;19925;-70
2022/02/22 13:32:37;;;;;;;;;;;9.20;99.90;;;;;;8384140;28;19931;-70
2022/02/22 13:36:40;;;;;;;;;;;9.30;99.90;;;;;;8384116;28;19924;-70
2022/02/22 13:40:42;;;;;;;;;;;9.30;99.90;;;;;;8405629;28;19925;-70
2022/02/22 13:44:44;;;;;;;;;;;9.30;99.90;;;;;;8403447;28;19978;-70
2022/02/22 13:48:47;;;;;;;;;;;9.40;99.90;;;;;;8404247;28;19959;-70
2022/02/22 13:53:20;;;;;;;;;;;9.40;99.90;;;;;;8413432;28;20410;-70
2022/02/22 13:57:21;;;;;;;;;;;9.50;99.90;;;;;;8406918;28;19924;-70
2022/02/22 14:01:23;;;;;;;;;;;9.60;99.90;;;;;;8386169;28;19924;-70
2022/02/22 14:05:24;;;;;;;;;;;9.60;99.90;;;;;;8402307;28;19924;-70
2022/02/22 14:09:26;;;;;;;;;;;9.60;99.90;;;;;;8402066;28;19928;-70
2022/02/22 14:13:35;;;;;;;;;;;9.70;99.90;;;;;;8403211;28;19924;-70
2022/02/22 14:17:56;;;;;;;;;;;9.80;99.90;;;;;;8398209;28;19977;-70
2022/02/22 14:21:58;;;;;;;;;;;9.80;99.90;;;;;;8408511;28;20303;-70
2022/02/22 14:31:09;;;;;;;;;;;10.00;99.90;;;;;;8398756;28;19966;-70
2022/02/22 14:35:12;;;;;;;;;;;10.00;99.90;;;;;;8405606;28;19928;-70
2022/02/22 14:39:14;;;;;;;;;;;10.00;99.90;;;;;;8408622;28;19931;-70
2022/02/22 14:43:16;;;;;;;;;;;10.10;99.90;;;;;;8406679;28;20391;-70
2022/02/22 14:47:18;;;;;;;;;;;10.10;99.90;;;;;;8385424;28;19924;-70
2022/02/22 14:51:20;;;;;;;;;;;10.10;99.90;;;;;;8402434;28;19931;-70
2022/02/22 14:55:22;;;;;;;;;;;10.00;99.90;;;;;;8413954;28;19935;-70
2022/02/22 14:59:24;;;;;;;;;;;10.00;99.90;;;;;;8411006;28;19925;-70
2022/02/22 15:03:26;;;;;;;;;;;9.90;99.90;;;;;;8387391;28;19928;-70
2022/02/22 15:07:28;;;;;;;;;;;9.80;99.90;;;;;;8405220;28;19931;-70
2022/02/22 15:11:30;;;;;;;;;;;9.70;99.90;;;;;;8384202;28;19923;-70
2022/02/22 15:15:32;;;;;;;;;;;9.70;99.90;;;;;;8402034;28;19928;-71
2022/02/22 15:19:33;;;;;;;;;;;9.70;99.90;;;;;;8401823;28;20375;-70
2022/02/22 15:23:35;;;;;;;;;;;9.70;99.90;;;;;;8408043;28;19924;-70
2022/02/22 15:27:37;;;;;;;;;;;9.60;99.90;;;;;;8381959;28;19924;-70
2022/02/22 15:31:39;;;;;;;;;;;9.60;99.90;;;;;;8384681;28;19936;-70
2022/02/22 15:35:41;;;;;;;;;;;9.60;99.90;;;;;;8349645;28;20415;-70
2022/02/22 15:39:43;;;;;;;;;;;9.60;99.90;;;;;;8339237;28;19932;-70
2022/02/22 15:43:44;;;;;;;;;;;9.60;99.90;;;;;;8334393;28;20153;-71
2022/02/22 15:47:46;;;;;;;;;;;9.60;99.90;;;;;;8334679;28;20352;-70
2022/02/22 15:51:48;;;;;;;;;;;9.50;99.90;;;;;;8335642;28;19925;-71
2022/02/22 15:55:51;;;;;;;;;;;9.50;99.90;;;;;;8336270;28;20006;-71
2022/02/22 15:59:53;;;;;;;;;;;9.50;99.90;;;;;;8348153;28;19944;-70
2022/02/22 16:03:56;;;;;;;;;;;9.50;99.90;;;;;;8341140;28;19925;-71
2022/02/22 16:07:58;;;;;;;;;;;9.50;99.90;;;;;;8337899;28;19932;-70
2022/02/22 16:12:01;;;;;;;;;;;9.50;99.90;;;;;;8347961;28;20434;-71
2022/02/22 16:16:03;;;;;;;;;;;9.50;99.90;;;;;;8332308;28;19983;-71
2022/02/22 16:20:07;;;;;;;;;;;9.50;99.90;;;;;;8344586;28;19932;-71
2022/02/22 16:24:09;;;;;;;;;;;9.40;99.90;;;;;;8340268;28;20355;-71
2022/02/22 16:28:11;;;;;;;;;;;9.40;99.90;;;;;;8339494;28;19940;-71
2022/02/22 16:32:29;;;;;;;;;;;9.40;99.90;;;;;;8338292;28;19936;-71
2022/02/22 16:36:31;;;;;;;;;;;9.50;99.90;;;;;;8387181;28;19934;-71
2022/02/22 16:40:36;;;;;;;;;;;9.50;99.90;;;;;;8401538;28;19926;-71
2022/02/22 16:44:38;;;;;;;;;;;9.50;99.90;;;;;;8388891;28;19978;-71
2022/02/22 16:48:43;;;;;;;;;;;9.50;99.90;;;;;;8404811;28;20402;-71
2022/02/22 16:52:45;;;;;;;;;;;9.50;99.90;;;;;;8404317;28;19924;-71
2022/02/22 16:56:47;;;;;;;;;;;9.50;99.90;;;;;;8398117;28;19952;-71
2022/02/22 17:00:50;;;;;;;;;;;9.50;99.90;;;;;;8396399;28;19932;-71
2022/02/22 17:04:51;;;;;;;;;;;9.50;99.90;;;;;;8388427;28;19928;-71
2022/02/22 17:08:53;;;;;;;;;;;9.50;99.90;;;;;;8393804;28;19931;-71
2022/02/22 17:12:54;;;;;;;;;;;9.60;99.90;;;;;;8396868;28;19925;-71
2022/02/22 17:16:56;;;;;;;;;;;9.60;99.90;;;;;;8414244;28;19931;-71
2022/02/22 17:20:58;;;;;;;;;;;9.60;99.90;;;;;;8414754;28;19924;-71
2022/02/22 17:24:59;;;;;;;;;;;9.50;99.90;;;;;;8417747;28;19925;-71
2022/02/22 17:29:01;;;;;;;;;;;9.20;99.90;;;;;;8408503;28;19955;-71
2022/02/22 17:33:03;;;;;;;;;;;9.10;99.90;;;;;;8394844;28;19947;-71
2022/02/22 17:37:05;;;;;;;;;;;8.90;99.90;;;;;;8383122;28;20253;-71
2022/02/22 17:41:06;;;;;;;;;;;8.80;99.90;;;;;;8388697;28;19939;-71
2022/02/22 17:45:09;;;;;;;;;;;8.70;99.90;;;;;;8390898;28;19928;-70
2022/02/22 17:49:12;;;;;;;;;;;8.60;99.90;;;;;;8389285;28;19935;-70
2022/02/22 17:53:14;;;;;;;;;;;8.50;99.90;;;;;;8412999;28;19931;-70
2022/02/22 17:57:16;;;;;;;;;;;8.40;99.90;;;;;;8403009;28;20294;-70
2022/02/22 18:01:25;;;;;;;;;;;8.30;99.90;;;;;;8408628;28;19924;-70
2022/02/22 18:05:27;;;;;;;;;;;8.10;99.90;;;;;;8415915;28;19928;-70
2022/02/22 18:09:29;;;;;;;;;;;8.10;99.90;;;;;;8406731;28;19924;-70
2022/02/22 18:13:31;;;;;;;;;;;8.00;99.90;;;;;;8411928;28;19933;-70
2022/02/22 18:17:33;;;;;;;;;;;7.90;99.90;;;;;;8411118;28;20398;-71
2022/02/22 18:21:36;;;;;;;;;;;7.80;99.90;;;;;;8391911;28;19924;-70
2022/02/22 18:25:38;;;;;;;11.43;2.35;;;7.80;99.90;;;;;;8407739;28;19924;-70
2022/02/22 18:29:39;;;;;;;8.33;1.73;;;7.70;99.90;;;;;;8389653;28;20087;-70
2022/02/22 18:33:48;;;;;;;11.90;2.33;;;7.60;99.90;;;;;;8394610;28;20067;-71
2022/02/22 18:37:51;;;;;;;;;;;7.60;99.90;;;;;;8403714;28;20086;-70
2022/02/22 18:41:52;;;;;;;;;;;7.50;99.90;;;;;;8411950;28;20279;-70
2022/02/22 18:45:54;;;;;;;;;;;7.40;99.90;;;;;;8410443;28;19932;-70
2022/02/22 18:49:55;;;;;;;;;;;7.40;99.90;;;;;;8391890;28;19931;-70
2022/02/22 18:53:57;;;;;;;;;;;7.30;99.90;;;;;;8391565;28;19951;-70
2022/02/22 18:57:59;;;;;;;;;;;7.30;99.90;;;;;;8396395;28;19935;-70
2022/02/22 19:02:01;;;;;;;;;;;7.30;99.90;;;;;;8390383;28;19928;-70
2022/02/22 19:06:02;;;;;;;3.88;1.30;;;7.30;99.90;;;;;;8405820;28;19931;-70
2022/02/22 19:10:05;;;;;;;;;;;7.30;99.90;;;;;;8406347;28;20088;-70
2022/02/22 19:14:07;;;;;;;;;;;7.30;99.90;;;;;;8399735;28;19940;-70
2022/02/22 19:18:09;;;;;;;;;;;7.20;99.90;;;;;;8402141;28;19924;-70
2022/02/22 19:22:11;;;;;;;;;;;7.20;99.90;;;;;;8409788;28;20238;-70
2022/02/22 19:26:12;;;;;;;;;;;7.20;99.90;;;;;;8410229;28;20356;-70
2022/02/22 19:30:14;;;;;;;;;;;7.10;99.90;;;;;;8412674;28;19940;-71
2022/02/22 19:34:16;;;;;;;;;;;7.10;99.90;;;;;;8394370;28;19931;-70
2022/02/22 19:38:17;;;;;;;;;;;7.10;99.90;;;;;;8409195;28;19935;-70
2022/02/22 19:42:20;;;;;;;;;;;7.10;99.90;;;;;;8406682;28;19925;-71
2022/02/22 19:46:22;;;;;;;;;;;7.20;99.90;;;;;;8401790;28;19995;-70
2022/02/22 19:50:23;;;;;;;;;;;7.30;99.90;;;;;;8410814;28;20336;-71
2022/02/22 19:54:27;;;;;;;;;;;7.30;99.90;;;;;;8407774;28;20569;-70
2022/02/22 19:58:29;;;;;;;;;;;7.30;99.90;;;;;;8396053;28;19924;-70
2022/02/22 20:02:31;;;;;;;;;;;7.40;99.90;;;;;;8410734;28;19924;-70
2022/02/22 20:06:33;;;;;;;;;;;7.40;99.90;;;;;;8410621;28;20042;-71
2022/02/22 20:10:34;;;;;;;;;;;7.40;99.90;;;;;;8390195;28;19932;-70
2022/02/22 20:14:36;;;;;;;;;;;7.50;99.90;;;;;;8410235;28;19963;-70
2022/02/22 20:18:38;;;;;;;;;;;7.50;99.90;;;;;;8409615;28;20439;-71
2022/02/22 20:22:40;;;;;;;;;;;7.50;99.90;;;;;;8405147;28;19924;-70
2022/02/22 20:26:42;;;;;;;;;;;7.50;99.90;;;;;;8409515;28;19936;-70
2022/02/22 20:30:44;;;;;;;;;;;7.50;99.90;;;;;;8410770;28;19924;-70
2022/02/22 20:34:46;;;;;;;;;;;7.40;99.90;;;;;;8413647;28;19931;-70
2022/02/22 20:38:48;;;;;;;;;;;7.40;99.90;;;;;;8424636;28;20023;-70
2022/02/22 20:42:50;;;;;;;;;;;7.40;99.90;;;;;;8417929;28;19931;-71
2022/02/22 20:46:52;;;;;;;;;;;7.40;99.90;;;;;;8404728;28;20283;-70
2022/02/22 20:50:53;;;;;;;;;;;7.30;99.90;;;;;;8408284;28;19924;-70
2022/02/22 20:54:55;;;;;;;;;;;7.30;99.90;;;;;;8415502;28;20039;-70
2022/02/22 20:58:56;;;;;;;;;;;7.20;99.90;;;;;;8405438;28;19931;-71
2022/02/22 21:02:59;;;;;;;;;;;7.20;99.90;;;;;;8398673;28;20226;-70
2022/02/22 21:07:01;;;;;;;;;;;7.20;99.90;;;;;;8400300;28;19932;-70
2022/02/22 21:11:03;;;;;;;;;;;7.20;99.90;;;;;;8413493;28;19932;-70
2022/02/22 21:15:05;;;;;;;;;;;7.20;99.90;;;;;;8416696;28;19931;-70
2022/02/22 21:19:08;;;;;;;;;;;7.20;99.90;;;;;;8414144;28;19939;-70
2022/02/22 21:23:10;;;;;;;;;;;7.10;99.90;;;;;;8417534;28;19936;-70
2022/02/22 21:27:12;;;;;;;;;;;7.10;99.90;;;;;;8417589;28;19928;-70
2022/02/22 21:31:14;;;;;;;;;;;7.00;99.90;;;;;;8395971;28;19924;-70
2022/02/22 21:35:15;;;;;;;;;;;7.00;99.90;;;;;;8393938;28;19932;-70
2022/02/22 21:39:19;;;;;;;;;;;7.00;99.90;;;;;;8393688;28;21568;-70
2022/02/22 21:43:21;;;;;;;;;;;7.00;99.90;;;;;;8413826;28;20032;-70
2022/02/22 21:47:22;;;;;;;;;;;7.00;99.90;;;;;;8406209;28;19944;-70
2022/02/22 21:51:24;;;;;;;;;;;6.90;99.90;;;;;;8416786;28;20044;-70
2022/02/22 21:55:26;;;;;;;;;;;7.00;99.90;;;;;;8414563;28;19947;-70
2022/02/22 21:59:27;;;;;;;;;;;6.90;99.90;;;;;;8388635;28;20015;-70
2022/02/22 22:03:29;;;;;;;;;;;6.90;99.90;;;;;;8391703;28;19924;-71
2022/02/22 22:07:31;;;;;;;;;;;6.80;99.90;;;;;;8408644;28;20379;-71
2022/02/22 22:11:33;;;;;;;;;;;6.80;99.90;;;;;;8385485;28;19935;-70
2022/02/22 22:15:35;;;;;;;;;;;6.80;99.90;;;;;;8410461;28;20303;-70
2022/02/22 22:19:37;;;;;;;;;;;6.90;99.90;;;;;;8412751;28;19936;-70
2022/02/22 22:23:39;;;;;;;;;;;6.90;99.90;;;;;;8398101;28;20272;-70
2022/02/22 22:27:41;;;;;;;;;;;6.90;99.90;;;;;;8400109;28;19933;-71
2022/02/22 22:31:42;;;;;;;;;;;6.90;99.90;;;;;;8394093;28;21912;-71
2022/02/22 22:35:44;;;;;;;;;;;6.90;99.90;;;;;;8387153;28;19924;-70
2022/02/22 22:40:06;;;;;;;;;;;6.90;99.90;;;;;;8409384;28;20392;-71
2022/02/22 22:44:08;;;;;;;;;;;6.90;99.90;;;;;;8389709;28;19929;-71
2022/02/22 22:48:10;;;;;;;;;;;7.00;99.90;;;;;;8389186;28;19928;-71
2022/02/22 22:52:11;;;;;;;;;;;7.00;99.90;;;;;;8403191;28;20295;-71
2022/02/22 22:56:13;;;;;;;;;;;7.00;99.90;;;;;;8409440;28;19927;-71
2022/02/22 23:00:15;;;;;;;;;;;7.00;99.90;;;;;;8391819;28;19924;-71
2022/02/22 23:04:16;;;;;;;;;;;6.90;99.90;;;;;;8403218;28;19931;-71
2022/02/22 23:16:59;;;;;;;;;;;6.80;99.90;;;;;;8411513;28;19924;-71
2022/02/22 23:21:05;;;;;;;;;;;6.70;99.90;;;;;;8407978;28;19931;-71
2022/02/22 23:25:07;;;;;;;;;;;6.60;99.90;;;;;;8404698;28;19925;-71
2022/02/22 23:29:08;;;;;;;;;;;6.50;99.90;;;;;;8410932;28;19935;-71
2022/02/22 23:33:10;;;;;;;;;;;6.50;99.90;;;;;;8407644;28;19932;-71
2022/02/22 23:37:12;;;;;;;;;;;6.40;99.90;;;;;;8403046;28;19941;-71
2022/02/22 23:41:13;;;;;;;;;;;6.40;99.90;;;;;;8404508;28;19939;-71
2022/02/22 23:45:35;;;;;;;;;;;6.40;99.90;;;;;;8388429;28;19968;-71
2022/02/22 23:49:37;;;;;;;;;;;6.40;99.90;;;;;;8387109;28;19928;-71
2022/02/22 23:53:39;;;;;;;;;;;6.30;99.90;;;;;;8396395;28;20291;-71
2022/02/22 23:57:40;;;;;;;;;;;6.30;99.90;;;;;;8387053;28;20372;-71
